Antilles Vi — 3EKX6 — position and weather

sailwx.info

Track history (hours):
 
Tides and Currents Weather Stations Pressure Air Temp Water Temp Dewpoint Dewpoint Depression Visibility Wind Speed Wind Dir Waves Ship Positions

Antilles Vi

Last reported at 2017-Aug-19 19:44 UTC. Time now 2017-Aug-22 05:27 UTC.
Position N 01°18' E 103°22'.

Length 170 m; draft 7 m.

Type: Cargo ship. MMSI: 373622000.

Date/timePositionNaut miles runAvg speedWind from/ knotsBaromVisibWave heightAir tempDewpointWater temp
2017-Aug-19 19:44N 01°18' E 103°22'310.4
2017-Aug-19 19:28N 01°16' E 103°24'6 9.6
2017-Aug-19 18:48N 01°13' E 103°30'413.5
2017-Aug-19 18:30N 01°12' E 103°33'612.4
2017-Aug-19 18:00N 01°11' E 103°40'611.1
2017-Aug-19 17:30N 01°09' E 103°45'5 9.9
2017-Aug-19 17:00N 01°11' E 103°49'4 7.9
2017-Aug-19 16:30N 01°13' E 103°52'2 3.7
2017-Aug-19 16:00N 01°15' E 103°53'0 0.1
2017-Aug-19 15:29N 01°15' E 103°53'0 0.0
2017-Aug-19 14:59N 01°15' E 103°53'0 0.1
2017-Aug-19 13:59N 01°15' E 103°53'0 0.2
2017-Aug-19 13:26N 01°15' E 103°52'0 0.0
2017-Aug-19 12:20N 01°15' E 103°52'0 0.0
2017-Aug-19 11:59N 01°15' E 103°52'0 0.0
2017-Aug-19 11:08N 01°15' E 103°52'0 0.0
2017-Aug-19 10:53N 01°15' E 103°52'0 0.0
2017-Aug-19 10:17N 01°15' E 103°52'0 0.0
2017-Aug-19 09:38N 01°15' E 103°52'0 0.0
2017-Aug-19 09:29N 01°15' E 103°52'0 0.0
2017-Aug-19 08:59N 01°15' E 103°52'0 0.0
2017-Aug-19 08:26N 01°15' E 103°52'0 0.0
2017-Aug-19 07:59N 01°15' E 103°52'0 0.0
2017-Aug-19 07:29N 01°15' E 103°52'0 0.1
2017-Aug-19 06:56N 01°15' E 103°52'0 0.0
2017-Aug-19 06:20N 01°15' E 103°52'0 0.0
2017-Aug-19 05:36N 01°15' E 103°52'0 0.0
2017-Aug-19 05:23N 01°15' E 103°52'0 0.0
2017-Aug-19 04:53N 01°15' E 103°52'0 0.0
2017-Aug-19 04:23N 01°15' E 103°52'0 0.0
2017-Aug-19 03:59N 01°15' E 103°52'0 0.0
2017-Aug-19 03:29N 01°15' E 103°52'0 0.0
2017-Aug-19 02:59N 01°15' E 103°52'0 0.1
2017-Aug-19 02:29N 01°15' E 103°52'0 0.0
2017-Aug-19 01:59N 01°15' E 103°52'0 0.0
2017-Aug-19 01:29N 01°15' E 103°52'0 0.1
2017-Aug-19 00:53N 01°15' E 103°52'0 0.0
2017-Aug-19 00:29N 01°15' E 103°52'0 0.0
2017-Aug-19 00:00N 01°15' E 103°52'2 3.1
2017-Aug-18 23:30N 01°13' E 103°53'2 4.9
2017-Aug-18 23:00N 01°14' E 103°56'2 3.3
2017-Aug-18 22:30N 01°15' E 103°57'2 3.9
2017-Aug-18 22:00N 01°15' E 103°59'2 3.6
2017-Aug-18 21:29N 01°16' E 104°01'2 3.7
2017-Aug-18 21:00N 01°16' E 104°02'3 3.9
2017-Aug-18 20:07N 01°17' E 104°06'2 3.2
2017-Aug-18 19:37N 01°18' E 104°06'2 4.4
2017-Aug-18 19:15N 01°19' E 104°05'1 5.3
2017-Aug-18 18:59N 01°20' E 104°04'11 7.7
2017-Aug-18 17:35N 01°26' E 103°55'0 0.1
2017-Aug-18 14:03N 01°26' E 103°55'0 0.0
2017-Aug-18 08:09N 01°26' E 103°55'0 0.0
2017-Aug-18 07:39N 01°26' E 103°55'0 0.0
2017-Aug-18 07:15N 01°26' E 103°55'0 0.0
2017-Aug-18 04:09N 01°26' E 103°55'0 0.0
2017-Aug-18 03:51N 01°26' E 103°55'0 0.0
2017-Aug-17 23:21N 01°26' E 103°55'0 0.0
2017-Aug-17 22:51N 01°26' E 103°55'0 0.0
2017-Aug-17 22:09N 01°26' E 103°55'0 0.0
2017-Aug-17 21:51N 01°26' E 103°55'0 0.0
2017-Aug-17 19:15N 01°26' E 103°55'0 0.0
2017-Aug-17 18:57N 01°26' E 103°55'0 0.0
2017-Aug-17 18:21N 01°26' E 103°55'0 0.0
2017-Aug-17 17:57N 01°26' E 103°55'0 0.0
2017-Aug-17 02:51N 01°26' E 103°55'0 0.0
2017-Aug-16 19:33N 01°26' E 103°55'0 0.0
2017-Aug-16 19:03N 01°26' E 103°55'0 0.0
2017-Aug-16 16:03N 01°26' E 103°55'0 0.0
2017-Aug-16 13:51N 01°26' E 103°55'0 0.0
2017-Aug-16 13:27N 01°26' E 103°55'0 0.0
2017-Aug-16 12:03N 01°26' E 103°55'0 0.0
2017-Aug-15 18:33N 01°26' E 103°55'0 0.0
2017-Aug-15 15:27N 01°26' E 103°55'0 0.0
2017-Aug-15 14:15N 01°26' E 103°55'0 0.0
2017-Aug-15 13:57N 01°26' E 103°55'0 0.0
2017-Aug-15 10:51N 01°26' E 103°55'0 0.0
2017-Aug-14 15:15N 01°26' E 103°55'0 0.0
2017-Aug-14 12:39N 01°26' E 103°55'0 0.0
2017-Aug-14 12:21N 01°26' E 103°55'0 0.0
2017-Aug-14 11:57N 01°26' E 103°55'0 0.0
2017-Aug-14 04:51N 01°26' E 103°55'0 0.0
2017-Aug-14 04:21N 01°26' E 103°55'0 0.0
2017-Aug-14 03:57N 01°26' E 103°55'0 0.0
2017-Aug-14 03:28N 01°26' E 103°55'10 6.0
2017-Aug-14 01:47N 01°21' E 104°04'6 4.8
2017-Aug-14 00:27N 01°15' E 104°01'511.2
2017-Aug-14 00:00N 01°13' E 103°56'714.9
2017-Aug-13 23:31N 01°10' E 103°50'714.0
2017-Aug-13 23:00N 01°06' E 103°44'612.9
2017-Aug-13 22:30N 01°03' E 103°39'713.2
2017-Aug-13 21:56N 01°06' E 103°32'913.1
2017-Aug-13 21:16N 01°11' E 103°25'413.1
2017-Aug-13 20:58N 01°13' E 103°22'  
Track history (hours):
 
Tides and Currents Weather Stations Pressure Air Temp Water Temp Dewpoint Dewpoint Depression Visibility Wind Speed Wind Dir Waves Ship Positions

Antilles Vi

Last reported at 2017-Aug-19 19:44 UTC. Time now 2017-Aug-22 05:27 UTC.
Position N 01°18' E 103°22'.

Length 170 m; draft 7 m.

Type: Cargo ship. MMSI: 373622000.

Date/timePositionNaut miles runAvg speedWind from/ knotsBaromVisibWave heightAir tempDewpointWater temp
2017-Aug-19 19:44N 01°18' E 103°22'310.4
2017-Aug-19 19:28N 01°16' E 103°24'6 9.6
2017-Aug-19 18:48N 01°13' E 103°30'413.5
2017-Aug-19 18:30N 01°12' E 103°33'612.4
2017-Aug-19 18:00N 01°11' E 103°40'611.1
2017-Aug-19 17:30N 01°09' E 103°45'5 9.9
2017-Aug-19 17:00N 01°11' E 103°49'4 7.9
2017-Aug-19 16:30N 01°13' E 103°52'2 3.7
2017-Aug-19 16:00N 01°15' E 103°53'0 0.1
2017-Aug-19 15:29N 01°15' E 103°53'0 0.0
2017-Aug-19 14:59N 01°15' E 103°53'0 0.1
2017-Aug-19 13:59N 01°15' E 103°53'0 0.2
2017-Aug-19 13:26N 01°15' E 103°52'0 0.0
2017-Aug-19 12:20N 01°15' E 103°52'0 0.0
2017-Aug-19 11:59N 01°15' E 103°52'0 0.0
2017-Aug-19 11:08N 01°15' E 103°52'0 0.0
2017-Aug-19 10:53N 01°15' E 103°52'0 0.0
2017-Aug-19 10:17N 01°15' E 103°52'0 0.0
2017-Aug-19 09:38N 01°15' E 103°52'0 0.0
2017-Aug-19 09:29N 01°15' E 103°52'0 0.0
2017-Aug-19 08:59N 01°15' E 103°52'0 0.0
2017-Aug-19 08:26N 01°15' E 103°52'0 0.0
2017-Aug-19 07:59N 01°15' E 103°52'0 0.0
2017-Aug-19 07:29N 01°15' E 103°52'0 0.1
2017-Aug-19 06:56N 01°15' E 103°52'0 0.0
2017-Aug-19 06:20N 01°15' E 103°52'0 0.0
2017-Aug-19 05:36N 01°15' E 103°52'0 0.0
2017-Aug-19 05:23N 01°15' E 103°52'0 0.0
2017-Aug-19 04:53N 01°15' E 103°52'0 0.0
2017-Aug-19 04:23N 01°15' E 103°52'0 0.0
2017-Aug-19 03:59N 01°15' E 103°52'0 0.0
2017-Aug-19 03:29N 01°15' E 103°52'0 0.0
2017-Aug-19 02:59N 01°15' E 103°52'0 0.1
2017-Aug-19 02:29N 01°15' E 103°52'0 0.0
2017-Aug-19 01:59N 01°15' E 103°52'0 0.0
2017-Aug-19 01:29N 01°15' E 103°52'0 0.1
2017-Aug-19 00:53N 01°15' E 103°52'0 0.0
2017-Aug-19 00:29N 01°15' E 103°52'0 0.0
2017-Aug-19 00:00N 01°15' E 103°52'2 3.1
2017-Aug-18 23:30N 01°13' E 103°53'2 4.9
2017-Aug-18 23:00N 01°14' E 103°56'2 3.3
2017-Aug-18 22:30N 01°15' E 103°57'2 3.9
2017-Aug-18 22:00N 01°15' E 103°59'2 3.6
2017-Aug-18 21:29N 01°16' E 104°01'2 3.7
2017-Aug-18 21:00N 01°16' E 104°02'3 3.9
2017-Aug-18 20:07N 01°17' E 104°06'2 3.2
2017-Aug-18 19:37N 01°18' E 104°06'2 4.4
2017-Aug-18 19:15N 01°19' E 104°05'1 5.3
2017-Aug-18 18:59N 01°20' E 104°04'11 7.7
2017-Aug-18 17:35N 01°26' E 103°55'0 0.1
2017-Aug-18 14:03N 01°26' E 103°55'0 0.0
2017-Aug-18 08:09N 01°26' E 103°55'0 0.0
2017-Aug-18 07:39N 01°26' E 103°55'0 0.0
2017-Aug-18 07:15N 01°26' E 103°55'0 0.0
2017-Aug-18 04:09N 01°26' E 103°55'0 0.0
2017-Aug-18 03:51N 01°26' E 103°55'0 0.0
2017-Aug-17 23:21N 01°26' E 103°55'0 0.0
2017-Aug-17 22:51N 01°26' E 103°55'0 0.0
2017-Aug-17 22:09N 01°26' E 103°55'0 0.0
2017-Aug-17 21:51N 01°26' E 103°55'0 0.0
2017-Aug-17 19:15N 01°26' E 103°55'0 0.0
2017-Aug-17 18:57N 01°26' E 103°55'0 0.0
2017-Aug-17 18:21N 01°26' E 103°55'0 0.0
2017-Aug-17 17:57N 01°26' E 103°55'0 0.0
2017-Aug-17 02:51N 01°26' E 103°55'0 0.0
2017-Aug-16 19:33N 01°26' E 103°55'0 0.0
2017-Aug-16 19:03N 01°26' E 103°55'0 0.0
2017-Aug-16 16:03N 01°26' E 103°55'0 0.0
2017-Aug-16 13:51N 01°26' E 103°55'0 0.0
2017-Aug-16 13:27N 01°26' E 103°55'0 0.0
2017-Aug-16 12:03N 01°26' E 103°55'0 0.0
2017-Aug-15 18:33N 01°26' E 103°55'0 0.0
2017-Aug-15 15:27N 01°26' E 103°55'0 0.0
2017-Aug-15 14:15N 01°26' E 103°55'0 0.0
2017-Aug-15 13:57N 01°26' E 103°55'0 0.0
2017-Aug-15 10:51N 01°26' E 103°55'0 0.0
2017-Aug-14 15:15N 01°26' E 103°55'0 0.0
2017-Aug-14 12:39N 01°26' E 103°55'0 0.0
2017-Aug-14 12:21N 01°26' E 103°55'0 0.0
2017-Aug-14 11:57N 01°26' E 103°55'0 0.0
2017-Aug-14 04:51N 01°26' E 103°55'0 0.0
2017-Aug-14 04:21N 01°26' E 103°55'0 0.0
2017-Aug-14 03:57N 01°26' E 103°55'0 0.0
2017-Aug-14 03:28N 01°26' E 103°55'10 6.0
2017-Aug-14 01:47N 01°21' E 104°04'6 4.8
2017-Aug-14 00:27N 01°15' E 104°01'511.2
2017-Aug-14 00:00N 01°13' E 103°56'714.9
2017-Aug-13 23:31N 01°10' E 103°50'714.0
2017-Aug-13 23:00N 01°06' E 103°44'612.9
2017-Aug-13 22:30N 01°03' E 103°39'713.2
2017-Aug-13 21:56N 01°06' E 103°32'913.1
2017-Aug-13 21:16N 01°11' E 103°25'413.1
2017-Aug-13 20:58N 01°13' E 103°22'  

Dump ship's entire track history